createdAt,value
2022-12-01T00:03:23.779Z,12.70
2022-12-01T00:06:45.598Z,13.05
2022-12-01T00:10:20.752Z,13.70
2022-12-01T00:13:32.622Z,13.80
2022-12-01T00:16:53.779Z,13.15
2022-12-01T00:20:15.727Z,12.73
2022-12-01T00:23:38.767Z,12.27
2022-12-01T00:27:00.703Z,13.50
2022-12-01T00:30:19.661Z,12.30
2022-12-01T00:33:31.364Z,11.93
2022-12-01T00:36:54.611Z,12.35
2022-12-01T00:40:30.581Z,12.48
2022-12-01T00:43:51.572Z,11.65
2022-12-01T00:47:15.605Z,12.40
2022-12-01T00:50:36.633Z,11.80
2022-12-01T00:53:56.723Z,11.88
2022-12-01T00:57:18.695Z,11.45
2022-12-01T01:00:42.606Z,11.35
2022-12-01T01:04:02.782Z,11.70
2022-12-01T01:07:22.487Z,11.90
2022-12-01T01:10:42.595Z,11.95
2022-12-01T01:14:02.673Z,10.98
2022-12-01T01:17:24.683Z,11.88
2022-12-01T01:20:44.499Z,12.63
2022-12-01T01:24:05.435Z,13.00
2022-12-01T01:27:25.612Z,12.10
2022-12-01T01:30:32.653Z,10.88
2022-12-01T01:33:36.842Z,11.55
2022-12-01T01:36:53.012Z,10.87
2022-12-01T01:40:22.325Z,11.68
2022-12-01T01:43:51.371Z,10.65
2022-12-01T01:47:08.342Z,11.00
2022-12-01T01:50:30.481Z,10.80
2022-12-01T01:53:34.075Z,10.23
2022-12-01T01:56:51.518Z,10.02
2022-12-01T02:00:08.169Z,10.40
2022-12-01T02:03:41.405Z,9.82
2022-12-01T02:07:07.380Z,9.70
2022-12-01T02:10:28.012Z,10.40
2022-12-01T02:14:11.198Z,10.27
2022-12-01T02:17:31.712Z,10.82
2022-12-01T02:21:28.656Z,10.80
2022-12-01T02:24:43.825Z,10.75
2022-12-01T02:28:08.760Z,10.30
2022-12-01T02:31:35.905Z,10.32
2022-12-01T02:34:48.820Z,10.77
2022-12-01T02:38:14.760Z,18.38
2022-12-01T02:41:55.464Z,10.25
2022-12-01T02:45:27.333Z,10.23
2022-12-01T02:48:43.936Z,10.57
2022-12-01T02:52:08.812Z,10.25
2022-12-01T02:55:28.845Z,10.00
2022-12-01T02:58:37.777Z,10.10
2022-12-01T03:02:11.901Z,10.67
2022-12-01T03:06:09.280Z,10.82
2022-12-01T03:09:45.564Z,10.85
2022-12-01T03:13:20.714Z,10.20
2022-12-01T03:16:49.218Z,10.45
2022-12-01T03:20:15.248Z,10.63
2022-12-01T03:23:23.816Z,10.85
2022-12-01T03:26:32.913Z,10.43
2022-12-01T03:29:51.783Z,10.43
2022-12-01T03:33:13.198Z,11.27
2022-12-01T03:36:36.149Z,10.20
2022-12-01T03:39:58.754Z,10.70
2022-12-01T03:43:21.504Z,10.50
2022-12-01T03:46:35.752Z,10.82
2022-12-01T03:49:59.202Z,10.20
2022-12-01T03:53:14.459Z,10.20
2022-12-01T03:56:21.982Z,9.52
2022-12-01T03:59:31.140Z,9.73
2022-12-01T04:02:49.847Z,9.18
2022-12-01T04:06:10.216Z,9.43
2022-12-01T04:09:33.924Z,8.93
2022-12-01T04:12:43.949Z,8.38
2022-12-01T04:15:56.976Z,8.80
2022-12-01T04:19:01.279Z,10.13
2022-12-01T04:22:10.618Z,9.50
2022-12-01T04:25:25.957Z,8.40
2022-12-01T04:28:32.649Z,9.23
2022-12-01T04:31:40.114Z,9.35
2022-12-01T04:34:50.296Z,9.15
2022-12-01T04:38:14.095Z,10.00
2022-12-01T04:41:17.513Z,9.67
2022-12-01T04:44:24.347Z,9.32
2022-12-01T04:47:28.160Z,9.70
2022-12-01T04:50:43.949Z,9.88
2022-12-01T04:54:06.545Z,9.65
2022-12-01T04:57:09.389Z,10.63
2022-12-01T05:00:15.947Z,9.68
2022-12-01T05:03:29.096Z,9.73
2022-12-01T05:06:52.068Z,9.45
2022-12-01T05:10:16.054Z,11.07
2022-12-01T05:13:36.070Z,10.20
2022-12-01T05:16:55.909Z,9.88
2022-12-01T05:20:37.905Z,9.55
2022-12-01T05:23:48.577Z,10.48
2022-12-01T05:26:54.750Z,10.77
2022-12-01T05:30:15.918Z,10.57
2022-12-01T05:33:27.104Z,10.52
2022-12-01T05:36:31.695Z,11.00
2022-12-01T05:39:45.826Z,30.08
2022-12-01T05:43:07.546Z,11.52
2022-12-01T05:46:11.876Z,11.33
2022-12-01T05:49:37.859Z,12.55
2022-12-01T05:53:00.474Z,11.45
2022-12-01T05:56:13.895Z,10.90
2022-12-01T05:59:19.814Z,10.80
2022-12-01T06:02:35.702Z,12.53
2022-12-01T06:05:51.901Z,12.60
2022-12-01T06:08:56.175Z,12.85
2022-12-01T06:12:01.943Z,15.35
2022-12-01T06:15:17.643Z,19.88
2022-12-01T06:18:31.990Z,21.97
2022-12-01T06:21:38.165Z,21.35
2022-12-01T06:25:01.730Z,19.98
2022-12-01T06:28:33.694Z,20.75
2022-12-01T06:31:51.115Z,19.35
2022-12-01T06:35:02.490Z,18.83
2022-12-01T06:38:25.674Z,18.38
2022-12-01T06:41:57.383Z,19.75
2022-12-01T06:45:01.252Z,18.35
2022-12-01T06:48:20.514Z,18.95
2022-12-01T06:51:38.813Z,19.27
2022-12-01T06:55:12.843Z,18.27
2022-12-01T06:58:35.922Z,23.15
2022-12-01T07:02:04.331Z,20.10
2022-12-01T07:05:31.928Z,17.90
2022-12-01T07:08:48.933Z,19.63
2022-12-01T07:17:32.785Z,18.95
2022-12-01T07:30:57.957Z,16.70
2022-12-01T07:34:16.947Z,15.35
2022-12-01T07:37:45.416Z,15.98
2022-12-01T07:40:51.251Z,17.73
2022-12-01T07:44:18.963Z,18.27
2022-12-01T07:48:16.857Z,18.13
2022-12-01T07:52:37.770Z,19.55
2022-12-01T07:56:08.621Z,22.27
2022-12-01T07:59:59.381Z,18.95
2022-12-01T08:03:45.815Z,17.00
2022-12-01T08:06:50.658Z,18.60
2022-12-01T08:10:02.479Z,17.88
2022-12-01T08:13:38.123Z,18.20
2022-12-01T08:17:27.437Z,18.98
2022-12-01T08:20:34.085Z,19.10
2022-12-01T08:28:22.514Z,16.60
2022-12-01T08:31:34.102Z,17.00
2022-12-01T08:35:32.129Z,16.17
2022-12-01T08:38:35.467Z,17.25
2022-12-01T08:41:52.706Z,15.50
2022-12-01T08:51:30.738Z,17.90
2022-12-01T08:54:40.910Z,16.38
2022-12-01T09:03:04.878Z,16.83
2022-12-01T09:11:42.290Z,17.98
2022-12-01T09:15:28.848Z,18.58
2022-12-01T09:19:04.981Z,19.85
2022-12-01T09:23:15.680Z,19.83
2022-12-01T09:26:32.398Z,20.48
2022-12-01T09:35:36.153Z,17.25
2022-12-01T09:39:34.228Z,16.92
2022-12-01T09:42:49.577Z,95.93
2022-12-01T09:46:06.605Z,102.18
2022-12-01T09:50:11.902Z,18.00
2022-12-01T09:54:00.888Z,16.80
2022-12-01T10:07:47.941Z,16.48
2022-12-01T10:11:47.343Z,15.48
2022-12-01T10:15:42.258Z,15.80
2022-12-01T10:24:22.315Z,11.87
2022-12-01T10:28:12.593Z,15.55
2022-12-01T10:31:50.856Z,12.63
2022-12-01T10:35:20.385Z,11.45
2022-12-01T10:39:46.213Z,23.23
2022-12-01T10:42:56.298Z,12.53
2022-12-01T10:50:29.075Z,13.20
2022-12-01T10:54:52.635Z,12.48
2022-12-01T10:58:23.480Z,12.57
2022-12-01T11:11:44.615Z,13.85
2022-12-01T11:15:46.017Z,11.70
2022-12-01T11:25:06.137Z,11.47
2022-12-01T11:34:06.684Z,11.93
2022-12-01T11:37:19.644Z,11.70
2022-12-01T11:40:46.866Z,10.85
2022-12-01T11:44:01.129Z,10.97
2022-12-01T11:47:23.608Z,10.88
2022-12-01T11:50:32.078Z,11.93
2022-12-01T11:53:41.733Z,11.55
2022-12-01T11:57:32.425Z,10.40
2022-12-01T12:00:54.513Z,11.00
2022-12-01T12:04:32.141Z,10.15
2022-12-01T12:08:29.335Z,10.07
2022-12-01T12:12:13.809Z,10.48
2022-12-01T12:20:20.343Z,9.10
2022-12-01T12:23:44.126Z,10.18
2022-12-01T12:27:26.820Z,9.60
2022-12-01T12:45:36.397Z,8.77
2022-12-01T12:49:22.281Z,8.90
2022-12-01T12:53:30.890Z,9.10
2022-12-01T12:57:36.279Z,9.30
2022-12-01T13:07:23.064Z,8.68
2022-12-01T13:17:15.505Z,9.20
2022-12-01T13:20:36.106Z,8.38
2022-12-01T13:23:45.996Z,8.60
2022-12-01T13:27:34.283Z,8.82
2022-12-01T13:31:49.902Z,8.60
2022-12-01T13:35:38.482Z,8.75
2022-12-01T13:39:18.972Z,9.73
2022-12-01T13:42:26.882Z,8.67
2022-12-01T13:45:45.011Z,9.05
2022-12-01T13:49:06.822Z,9.55
2022-12-01T13:53:07.687Z,8.32
2022-12-01T13:56:41.271Z,9.65
2022-12-01T14:00:24.295Z,9.80
2022-12-01T14:03:53.328Z,10.93
2022-12-01T14:07:21.467Z,8.98
2022-12-01T14:10:46.526Z,9.93
2022-12-01T14:13:57.436Z,9.20
2022-12-01T14:17:03.959Z,8.53
2022-12-01T14:20:20.184Z,9.63
2022-12-01T14:23:37.060Z,9.35
2022-12-01T14:26:46.711Z,9.93
2022-12-01T14:30:55.200Z,9.73
2022-12-01T14:34:32.268Z,9.10
2022-12-01T14:37:58.656Z,11.27
2022-12-01T14:41:21.099Z,9.60
2022-12-01T14:44:45.032Z,9.82
2022-12-01T14:48:10.133Z,11.05
2022-12-01T14:51:28.293Z,10.20
2022-12-01T14:54:50.097Z,10.32
2022-12-01T14:58:06.459Z,11.18
2022-12-01T15:01:41.591Z,9.00
2022-12-01T15:05:12.591Z,9.68
2022-12-01T15:08:58.347Z,9.53
2022-12-01T15:12:10.436Z,9.68
2022-12-01T15:15:22.411Z,9.40
2022-12-01T15:18:42.437Z,9.18
2022-12-01T15:21:59.711Z,9.23
2022-12-01T15:25:25.000Z,9.97
2022-12-01T15:28:50.303Z,8.90
2022-12-01T15:32:13.828Z,9.38
2022-12-01T15:35:25.247Z,8.85
2022-12-01T15:38:51.351Z,9.60
2022-12-01T15:42:09.762Z,9.93
2022-12-01T15:45:35.820Z,10.35
2022-12-01T15:48:40.325Z,11.25
2022-12-01T15:52:05.802Z,10.00
2022-12-01T15:55:51.801Z,9.57
2022-12-01T15:59:24.010Z,9.20
2022-12-01T16:02:35.797Z,9.73
2022-12-01T16:05:45.997Z,9.50
2022-12-01T16:09:08.047Z,10.93
2022-12-01T16:12:31.188Z,12.70
2022-12-01T16:15:55.843Z,11.00
2022-12-01T16:19:23.026Z,10.40
2022-12-01T16:22:42.050Z,11.70
2022-12-01T16:25:54.630Z,12.38
2022-12-01T16:29:23.026Z,10.43
2022-12-01T16:32:40.741Z,9.63
2022-12-01T16:36:00.463Z,9.52
2022-12-01T16:39:23.063Z,9.30
2022-12-01T16:42:51.064Z,9.68
2022-12-01T16:46:17.467Z,10.40
2022-12-01T16:49:39.901Z,10.03
2022-12-01T16:53:00.908Z,10.60
2022-12-01T16:56:28.654Z,10.23
2022-12-01T16:59:47.958Z,12.05
2022-12-01T17:03:11.053Z,11.32
2022-12-01T17:06:29.507Z,11.00
2022-12-01T17:09:53.981Z,11.70
2022-12-01T17:13:15.028Z,10.90
2022-12-01T17:16:25.080Z,13.20
2022-12-01T17:19:48.092Z,11.65
2022-12-01T17:23:11.929Z,14.73
2022-12-01T17:26:37.322Z,17.05
2022-12-01T17:30:04.925Z,17.25
2022-12-01T17:33:28.026Z,15.95
2022-12-01T17:36:51.172Z,17.70
2022-12-01T17:40:12.991Z,19.00
2022-12-01T17:43:36.136Z,19.10
2022-12-01T17:47:02.505Z,19.75
2022-12-01T17:50:20.075Z,18.17
2022-12-01T17:53:42.956Z,18.63
2022-12-01T17:57:04.015Z,17.47
2022-12-01T18:00:27.871Z,17.73
2022-12-01T18:03:51.019Z,17.73
2022-12-01T18:07:10.916Z,18.25
2022-12-01T18:10:31.129Z,19.08
2022-12-01T18:13:56.513Z,18.93
2022-12-01T18:17:10.986Z,19.23
2022-12-01T18:20:14.395Z,19.75
2022-12-01T18:23:17.978Z,20.60
2022-12-01T18:26:40.622Z,20.90
2022-12-01T18:30:01.566Z,21.00
2022-12-01T18:33:13.334Z,21.25
2022-12-01T18:36:30.875Z,21.92
2022-12-01T18:40:02.015Z,22.02
2022-12-01T18:43:05.441Z,21.80
2022-12-01T18:46:17.848Z,21.73
2022-12-01T18:49:29.261Z,23.42
2022-12-01T18:52:38.838Z,23.15
2022-12-01T18:55:45.779Z,22.55
2022-12-01T18:59:05.123Z,22.27
2022-12-01T19:02:11.452Z,22.53
2022-12-01T19:05:29.019Z,22.38
2022-12-01T19:08:44.813Z,23.55
2022-12-01T19:12:00.171Z,23.20
2022-12-01T19:15:16.722Z,22.63
2022-12-01T19:18:46.615Z,22.97
2022-12-01T19:22:09.748Z,22.25
2022-12-01T19:25:41.896Z,22.67
2022-12-01T19:29:00.658Z,22.45
2022-12-01T19:32:23.738Z,23.08
2022-12-01T19:35:45.704Z,22.23
2022-12-01T19:39:08.801Z,23.38
2022-12-01T19:42:20.646Z,23.88
2022-12-01T19:45:43.773Z,27.33
2022-12-01T19:49:15.823Z,24.05
2022-12-01T19:52:36.750Z,24.70
2022-12-01T19:55:52.573Z,25.05
2022-12-01T19:59:13.295Z,24.90
2022-12-01T20:02:38.761Z,23.63
2022-12-01T20:06:03.284Z,23.52
2022-12-01T20:09:25.599Z,23.63
2022-12-01T20:12:49.752Z,23.75
2022-12-01T20:16:14.856Z,24.48
2022-12-01T20:19:36.344Z,22.45
2022-12-01T20:22:53.698Z,22.88
2022-12-01T20:26:15.405Z,23.30
2022-12-01T20:29:35.552Z,21.20
2022-12-01T20:32:59.562Z,23.00
2022-12-01T20:36:23.106Z,25.30
2022-12-01T20:39:46.620Z,25.10
2022-12-01T20:43:04.607Z,26.20
2022-12-01T20:46:28.781Z,26.85
2022-12-01T20:49:45.747Z,25.80
2022-12-01T20:53:05.506Z,27.08
2022-12-01T20:56:26.891Z,27.25
2022-12-01T20:59:52.617Z,27.93
2022-12-01T21:03:12.595Z,26.35
2022-12-01T21:06:28.942Z,28.80
2022-12-01T21:09:32.818Z,26.98
2022-12-01T21:13:08.928Z,28.05
2022-12-01T21:16:35.250Z,27.43
2022-12-01T21:19:47.719Z,25.70
2022-12-01T21:23:01.560Z,27.35
2022-12-01T21:26:14.785Z,28.50
2022-12-01T21:29:32.626Z,27.52
2022-12-01T21:33:02.236Z,26.57
2022-12-01T21:36:22.627Z,25.83
2022-12-01T21:39:44.488Z,31.23
2022-12-01T21:43:07.470Z,28.25
2022-12-01T21:46:30.463Z,29.52
2022-12-01T21:49:52.593Z,29.90
2022-12-01T21:53:08.342Z,26.33
2022-12-01T21:56:38.557Z,27.70
2022-12-01T21:59:58.589Z,26.73
2022-12-01T22:03:33.284Z,26.65
2022-12-01T22:06:47.574Z,27.57
2022-12-01T22:10:09.121Z,27.90
2022-12-01T22:13:22.377Z,28.17
2022-12-01T22:16:50.212Z,28.23
2022-12-01T22:20:02.577Z,26.10
2022-12-01T22:23:20.295Z,26.03
2022-12-01T22:26:26.461Z,25.55
2022-12-01T22:29:33.992Z,25.50
2022-12-01T22:33:10.147Z,24.30
2022-12-01T22:36:24.847Z,25.42
2022-12-01T22:39:40.129Z,26.07
2022-12-01T22:43:00.792Z,26.42
2022-12-01T22:46:17.671Z,26.95
2022-12-01T22:49:43.305Z,26.63
2022-12-01T22:53:08.232Z,26.75
2022-12-01T22:56:32.363Z,27.20
2022-12-01T22:59:56.119Z,27.40
2022-12-01T23:03:15.077Z,27.08
2022-12-01T23:06:52.602Z,27.83
2022-12-01T23:10:11.156Z,29.25
2022-12-01T23:13:24.946Z,29.40
2022-12-01T23:16:44.252Z,29.40
2022-12-01T23:20:16.421Z,28.52
2022-12-01T23:23:37.169Z,28.60
2022-12-01T23:26:52.308Z,26.88
2022-12-01T23:30:13.986Z,28.47
2022-12-01T23:33:33.123Z,28.15
2022-12-01T23:36:57.112Z,29.13
2022-12-01T23:40:33.555Z,28.13
2022-12-01T23:43:43.088Z,29.95
2022-12-01T23:47:07.136Z,29.87
2022-12-01T23:50:31.918Z,29.08
2022-12-01T23:53:49.877Z,28.77
2022-12-01T23:57:34.366Z,27.42
